Meteo Giornale » Osservazioni meteo Grecia » Ioannina

ore: 15:20 - Osservazioni Meteo Ioannina
Lat. 39° 42' N Lon. 20° 49' E Alt. 476 metri s.l.m.

sereno Europe/Athens

14 °C

Sereno

Temp. 24 Ore

-8 °C

14 °C

Nord-Ovest

11.1 Km/h

Dew point -4 °C

Umidità 28 %

Visibilità  0 Km

Il sole sorge alle ore 07:50

Il sole tramonta alle ore 17:46

Data e Ora Cielo e Fenomeni T °C DP °C Um. % Pres. hPa Vis. km Vento km/h
Oggi h: 15:20 sereno Sereno 14 -4 28 1024 0 NO 11.1
Oggi h: 14:50 sereno Sereno 14 -3 30 1025 0 N 5.5
Oggi h: 14:20 sereno Sereno 12 -4 32 1025 0 N 5.5
Oggi h: 13:50 sereno Sereno 11 -4 34 1025 10 N 3.7
Oggi h: 13:20 sereno Sereno 9 -4 39 1025 10 N 1.8
Oggi h: 12:50 sereno Sereno 8 -4 42 1025 10 N 5.5
Oggi h: 12:20 sereno Sereno 7 -3 48 1026 10 N 5.5
Oggi h: 11:50 sereno Sereno 6 -3 52 1026 10 N 3.7
Oggi h: 11:20 sereno Sereno 4 -4 55 1026 10 N 1.8
Oggi h: 10:50 sereno Sereno 3 -4 59 1026 10 N 1.8
Oggi h: 10:20 sereno Sereno 0 -4 74 1026 10 N 1.8
Oggi h: 09:50 sereno Sereno -2 -5 79 1026 10 N 5.5
Oggi h: 09:20 sereno Sereno -3 -6 79 1025 10 N 0
Oggi h: 08:50 sereno Sereno -6 -8 85 1025 10 N 3.7
Oggi h: 08:20 sereno Sereno -7 -9 85 1025 10 N 3.7
Oggi h: 07:50 sereno Sereno -7 -8 92 1026 0 N 1.8
Oggi h: 07:20 sereno Sereno -8 -9 92 1026 0 N 1.8
Oggi h: 06:50 sereno Sereno -7 -8 92 1026 0 N 3.7
Oggi h: 06:20 sereno Sereno -7 -9 85 1025 0 N 3.7
Oggi h: 05:50 sereno Sereno -7 -8 92 1025 0 N 1.8
Oggi h: 05:20 sereno Sereno -7 -8 92 1025 0 N 5.5
Oggi h: 04:50 sereno Sereno -6 -8 85 1025 0 N 1.8
Oggi h: 04:20 sereno Sereno -6 -7 92 1026 0 N 0
Oggi h: 03:50 sereno Sereno -6 -7 92 1026 0 N 1.8
Oggi h: 03:20 sereno Sereno -6 -7 92 1026 0 N 3.7
Oggi h: 02:50 sereno Sereno -6 -7 92 1026 0 N 1.8
Oggi h: 02:20 sereno Sereno -5 -7 85 1026 0 N 0
Oggi h: 01:50 sereno Sereno -6 -8 85 1026 0 N 1.8
Oggi h: 01:20 sereno Sereno -5 -7 85 1027 0 N 3.7
Oggi h: 00:50 sereno Sereno -4 -6 85 1027 0 N 1.8
Oggi h: 00:20 sereno Sereno -3 -5 86 1027 0 N 1.8
Ieri h: 23:50 sereno Sereno -3 -5 86 1027 0 N 0
Ieri h: 23:20 sereno Sereno -2 -5 79 1027 0 N 1.8
Ieri h: 22:50 sereno Sereno -3 -6 79 1027 0 N 0
Ieri h: 22:20 sereno Sereno -2 -5 79 1027 0 N 1.8
Ieri h: 21:50 sereno Sereno 1 -2 80 1027 0 N 1.8
Ieri h: 21:20 sereno Sereno -1 -5 74 1027 0 N 0
Ieri h: 20:50 sereno Sereno 1 -3 74 1027 10 N 0
Ieri h: 20:20 sereno Sereno 3 -3 64 1027 10 N 0
Ieri h: 19:50 sereno Sereno 2 -4 64 1027 10 N 0
Ieri h: 19:20 sereno Sereno 5 -5 48 1027 10 N 1.8
Ieri h: 18:50 sereno Sereno 4 -5 51 1027 10 N 0
Ieri h: 18:20 sereno Sereno 7 -4 45 1027 10 N 3.7
Ieri h: 17:50 sereno Sereno 7 -5 42 1027 0 N 0
Ieri h: 16:50 sereno Sereno 10 -3 39 1027 0 N 3.7
Ieri h: 16:20 sereno Sereno 10 -4 36 1028 0 SE 7.4
Ieri h: 15:50 sereno Sereno 11 -3 37 1028 0 E/SE 7.4
Ieri h: 15:20 sereno Sereno 11 -3 37 1028 0 SE 7.4
Ieri h: 14:50 sereno Sereno 10 -3 39 1029 0 E/SE 7.4